createdAt,value
2023-02-18T00:01:04.838Z,4.32
2023-02-18T00:03:06.430Z,7.32
2023-02-18T00:05:08.068Z,6.05
2023-02-18T00:07:09.639Z,3.92
2023-02-18T00:09:11.706Z,4.28
2023-02-18T00:11:14.195Z,4.70
2023-02-18T00:13:15.706Z,3.78
2023-02-18T00:15:17.253Z,3.13
2023-02-18T00:17:18.795Z,3.35
2023-02-18T00:19:22.224Z,3.33
2023-02-18T00:21:23.807Z,3.30
2023-02-18T00:23:25.920Z,4.05
2023-02-18T00:25:27.475Z,12.05
2023-02-18T00:27:29.092Z,3.58
2023-02-18T00:29:30.630Z,8.65
2023-02-18T00:31:37.299Z,5.38
2023-02-18T00:33:39.542Z,3.22
2023-02-18T00:35:41.023Z,2.40
2023-02-18T00:37:42.605Z,2.97
2023-02-18T00:39:44.426Z,2.50
2023-02-18T00:41:46.012Z,1.80
2023-02-18T00:43:47.821Z,1.17
2023-02-18T00:45:49.332Z,1.25
2023-02-18T00:47:50.796Z,1.20
2023-02-18T00:49:52.354Z,1.02
2023-02-18T00:51:53.842Z,0.93
2023-02-18T00:53:55.416Z,1.10
2023-02-18T00:55:56.970Z,1.33
2023-02-18T00:57:58.652Z,1.08
2023-02-18T01:00:00.190Z,1.20
2023-02-18T01:02:01.706Z,0.98
2023-02-18T01:04:03.383Z,1.02
2023-02-18T01:06:06.346Z,1.00
2023-02-18T01:08:09.828Z,0.85
2023-02-18T01:10:11.610Z,1.00
2023-02-18T01:12:13.090Z,0.77
2023-02-18T01:14:14.589Z,1.15
2023-02-18T01:16:17.181Z,1.00
2023-02-18T01:18:18.958Z,1.02
2023-02-18T01:20:20.668Z,1.05
2023-02-18T01:22:22.693Z,0.55
2023-02-18T01:24:24.401Z,1.10
2023-02-18T01:26:25.995Z,1.52
2023-02-18T01:28:27.568Z,1.10
2023-02-18T01:30:29.193Z,1.33
2023-02-18T01:32:30.840Z,0.90
2023-02-18T01:34:32.358Z,0.57
2023-02-18T01:36:34.025Z,0.77
2023-02-18T01:38:36.078Z,0.90
2023-02-18T01:40:45.925Z,1.10
2023-02-18T01:44:50.104Z,0.80
2023-02-18T01:46:51.795Z,0.95
2023-02-18T01:49:01.303Z,0.75
2023-02-18T01:51:09.243Z,0.60
2023-02-18T01:53:14.769Z,0.77
2023-02-18T01:55:16.482Z,0.80
2023-02-18T01:57:27.515Z,0.77
2023-02-18T01:59:37.182Z,0.47
2023-02-18T02:01:42.557Z,0.90
2023-02-18T02:03:44.034Z,0.90
2023-02-18T02:05:45.533Z,0.80
2023-02-18T02:07:51.032Z,1.00
2023-02-18T02:09:54.312Z,0.95
2023-02-18T02:12:20.558Z,0.80
2023-02-18T02:14:30.574Z,1.00
2023-02-18T02:16:44.869Z,0.70
2023-02-18T02:19:02.590Z,0.90
2023-02-18T02:21:22.808Z,0.60
2023-02-18T02:23:49.004Z,1.30
2023-02-18T02:26:26.467Z,3.00
2023-02-18T02:28:46.394Z,1.23
2023-02-18T02:31:11.217Z,1.17
2023-02-18T02:33:19.000Z,1.20
2023-02-18T02:35:25.617Z,1.02
2023-02-18T02:37:53.913Z,1.05
2023-02-18T02:40:10.043Z,1.00
2023-02-18T02:42:25.373Z,0.90
2023-02-18T02:44:47.956Z,0.93
2023-02-18T02:46:54.052Z,0.70
2023-02-18T02:49:32.606Z,0.82
2023-02-18T02:52:12.600Z,1.10
2023-02-18T02:54:24.369Z,0.70
2023-02-18T02:56:25.967Z,0.75
2023-02-18T02:58:27.498Z,0.93
2023-02-18T03:00:48.978Z,0.75
2023-02-18T03:03:14.628Z,0.85
2023-02-18T03:05:30.948Z,0.85
2023-02-18T03:07:58.044Z,0.90
2023-02-18T03:10:30.481Z,1.02
2023-02-18T03:12:46.961Z,1.10
2023-02-18T03:15:18.256Z,1.25
2023-02-18T03:17:26.794Z,0.98
2023-02-18T03:19:38.264Z,1.20
2023-02-18T03:21:45.865Z,0.90
2023-02-18T03:23:58.200Z,0.90
2023-02-18T03:26:00.787Z,1.00
2023-02-18T03:28:08.599Z,0.77
2023-02-18T03:30:37.142Z,1.10
2023-02-18T03:32:38.886Z,0.88
2023-02-18T03:34:47.782Z,0.70
2023-02-18T03:36:49.621Z,1.00
2023-02-18T03:38:57.203Z,1.00
2023-02-18T03:40:59.089Z,0.80
2023-02-18T03:43:00.655Z,0.77
2023-02-18T03:45:02.676Z,1.10
2023-02-18T03:47:04.444Z,1.15
2023-02-18T03:49:06.791Z,1.08
2023-02-18T03:51:08.370Z,1.15
2023-02-18T03:53:09.900Z,1.20
2023-02-18T03:55:11.662Z,1.10
2023-02-18T03:57:13.174Z,0.90
2023-02-18T03:59:14.942Z,1.02
2023-02-18T04:01:16.970Z,1.48
2023-02-18T04:03:18.587Z,1.33
2023-02-18T04:05:20.130Z,1.30
2023-02-18T04:07:21.730Z,1.05
2023-02-18T04:09:23.247Z,1.77
2023-02-18T04:11:24.794Z,1.10
2023-02-18T04:13:26.270Z,1.00
2023-02-18T04:15:27.974Z,0.90
2023-02-18T04:17:29.609Z,1.20
2023-02-18T04:19:31.096Z,1.05
2023-02-18T04:21:33.833Z,0.88
2023-02-18T04:23:35.431Z,0.80
2023-02-18T04:25:36.977Z,0.80
2023-02-18T04:27:38.532Z,0.88
2023-02-18T04:29:40.366Z,0.82
2023-02-18T04:31:41.972Z,1.00
2023-02-18T04:33:43.695Z,0.98
2023-02-18T04:35:45.757Z,0.68
2023-02-18T04:37:47.305Z,0.70
2023-02-18T04:39:48.884Z,1.25
2023-02-18T04:41:50.437Z,2.13
2023-02-18T04:43:52.108Z,0.77
2023-02-18T04:45:53.782Z,1.20
2023-02-18T04:47:55.557Z,0.90
2023-02-18T04:49:57.072Z,1.20
2023-02-18T04:51:58.867Z,1.13
2023-02-18T04:54:00.651Z,1.02
2023-02-18T04:56:02.242Z,1.33
2023-02-18T04:58:03.758Z,1.35
2023-02-18T05:00:07.793Z,1.65
2023-02-18T05:02:09.341Z,3.50
2023-02-18T05:04:10.967Z,2.55
2023-02-18T05:06:12.516Z,1.50
2023-02-18T05:08:14.233Z,1.23
2023-02-18T05:10:18.130Z,1.90
2023-02-18T05:12:19.662Z,1.38
2023-02-18T05:14:21.200Z,0.90
2023-02-18T05:16:22.808Z,1.33
2023-02-18T05:18:24.274Z,33.28
2023-02-18T05:20:25.839Z,2.97
2023-02-18T05:22:27.343Z,2.38
2023-02-18T05:24:28.851Z,5.68
2023-02-18T05:26:30.373Z,6.50
2023-02-18T05:28:32.003Z,6.05
2023-02-18T05:30:33.745Z,12.68
2023-02-18T05:32:35.312Z,7.45
2023-02-18T05:34:36.825Z,5.80
2023-02-18T05:36:38.509Z,5.20
2023-02-18T05:38:40.086Z,7.45
2023-02-18T05:40:41.605Z,10.73
2023-02-18T05:42:43.102Z,38.58
2023-02-18T05:44:44.728Z,16.33
2023-02-18T05:46:46.254Z,5.03
2023-02-18T05:48:47.797Z,3.17
2023-02-18T05:50:49.331Z,3.78
2023-02-18T05:52:50.861Z,3.08
2023-02-18T05:54:52.390Z,6.88
2023-02-18T05:56:54.727Z,4.95
2023-02-18T05:58:56.404Z,10.38
2023-02-18T06:00:57.913Z,6.07
2023-02-18T06:02:59.522Z,13.27
2023-02-18T06:05:01.084Z,5.70
2023-02-18T06:07:02.681Z,9.75
2023-02-18T06:09:05.531Z,9.68
2023-02-18T06:11:07.136Z,13.23
2023-02-18T06:13:08.687Z,26.60
2023-02-18T06:15:10.264Z,33.03
2023-02-18T06:17:12.969Z,18.80
2023-02-18T06:19:14.462Z,15.40
2023-02-18T06:21:16.099Z,10.38
2023-02-18T06:23:17.582Z,9.25
2023-02-18T06:25:19.217Z,18.55
2023-02-18T06:27:21.255Z,16.02
2023-02-18T06:29:23.027Z,25.15
2023-02-18T06:31:24.692Z,31.45
2023-02-18T06:33:26.374Z,21.65
2023-02-18T06:35:27.878Z,44.08
2023-02-18T06:37:29.388Z,48.83
2023-02-18T06:39:30.973Z,33.08
2023-02-18T06:41:32.585Z,29.70
2023-02-18T06:43:34.549Z,21.05
2023-02-18T06:45:36.033Z,29.77
2023-02-18T06:47:37.509Z,29.25
2023-02-18T06:49:39.096Z,27.38
2023-02-18T06:51:40.650Z,14.65
2023-02-18T06:53:43.846Z,17.33
2023-02-18T06:55:46.187Z,18.58
2023-02-18T06:57:47.686Z,25.88
2023-02-18T06:59:49.206Z,24.25
2023-02-18T07:01:50.797Z,23.05
2023-02-18T07:03:52.343Z,20.67
2023-02-18T07:05:53.921Z,16.02
2023-02-18T07:07:55.545Z,18.95
2023-02-18T07:09:57.039Z,25.50
2023-02-18T07:11:58.628Z,12.75
2023-02-18T07:14:00.128Z,8.98
2023-02-18T07:16:01.756Z,10.30
2023-02-18T07:18:03.503Z,12.10
2023-02-18T07:20:06.001Z,9.43
2023-02-18T07:22:07.595Z,10.23
2023-02-18T07:24:09.114Z,10.85
2023-02-18T07:26:13.379Z,8.85
2023-02-18T07:28:14.930Z,15.07
2023-02-18T07:30:16.944Z,11.43
2023-02-18T07:32:19.834Z,6.72
2023-02-18T07:34:21.461Z,10.10
2023-02-18T07:36:23.053Z,4.28
2023-02-18T07:38:25.700Z,22.23
2023-02-18T07:40:27.427Z,85.93
2023-02-18T07:42:28.969Z,14.05
2023-02-18T07:44:30.773Z,5.78
2023-02-18T07:46:32.357Z,17.27
2023-02-18T07:48:33.891Z,17.38
2023-02-18T07:50:37.091Z,11.15
2023-02-18T07:52:38.612Z,9.07
2023-02-18T07:54:40.389Z,21.23
2023-02-18T07:56:43.288Z,6.22
2023-02-18T07:58:44.837Z,10.68
2023-02-18T08:00:47.780Z,8.30
2023-02-18T08:02:49.330Z,14.07
2023-02-18T08:04:51.021Z,12.10
2023-02-18T08:06:52.534Z,9.32
2023-02-18T08:08:54.008Z,10.43
2023-02-18T08:11:01.023Z,17.48
2023-02-18T08:13:04.403Z,21.42
2023-02-18T08:15:06.279Z,20.77
2023-02-18T08:17:07.897Z,14.70
2023-02-18T08:19:09.481Z,21.40
2023-02-18T08:21:11.038Z,20.05
2023-02-18T08:23:13.555Z,9.25
2023-02-18T08:25:27.664Z,6.63
2023-02-18T08:27:30.725Z,8.63
2023-02-18T08:29:32.221Z,13.98
2023-02-18T08:31:34.131Z,7.15
2023-02-18T08:33:35.691Z,5.97
2023-02-18T08:35:37.384Z,5.10
2023-02-18T08:37:52.508Z,6.20
2023-02-18T08:39:55.997Z,13.50
2023-02-18T08:41:57.502Z,9.65
2023-02-18T08:43:59.095Z,9.75
2023-02-18T08:46:00.779Z,6.78
2023-02-18T08:48:17.284Z,3.78
2023-02-18T08:50:26.082Z,9.95
2023-02-18T08:52:28.172Z,3.42
2023-02-18T08:54:29.886Z,46.97
2023-02-18T08:56:32.652Z,21.05
2023-02-18T08:58:37.266Z,6.13
2023-02-18T09:00:40.118Z,14.90
2023-02-18T09:02:41.637Z,9.05
2023-02-18T09:04:43.922Z,8.43
2023-02-18T09:06:46.841Z,6.97
2023-02-18T09:08:48.448Z,12.27
2023-02-18T09:10:49.981Z,25.40
2023-02-18T09:12:51.549Z,11.32
2023-02-18T09:14:53.626Z,7.63
2023-02-18T09:16:57.185Z,9.48
2023-02-18T09:18:58.937Z,9.77
2023-02-18T09:21:00.735Z,28.00
2023-02-18T09:23:03.711Z,26.10
2023-02-18T09:25:06.093Z,29.88
2023-02-18T09:27:10.256Z,11.50
2023-02-18T09:29:12.760Z,29.00
2023-02-18T09:31:17.026Z,27.92
2023-02-18T09:33:18.892Z,7.53
2023-02-18T09:35:20.597Z,13.00
2023-02-18T09:37:22.376Z,26.23
2023-02-18T09:39:24.050Z,35.88
2023-02-18T09:41:34.998Z,20.48
2023-02-18T09:43:44.013Z,26.23
2023-02-18T09:45:45.858Z,14.52
2023-02-18T09:47:48.604Z,4.80
2023-02-18T09:49:57.177Z,7.07
2023-02-18T09:52:12.425Z,20.83
2023-02-18T09:54:17.933Z,20.65
2023-02-18T09:56:32.711Z,17.80
2023-02-18T09:58:34.565Z,25.77
2023-02-18T10:00:59.129Z,13.02
2023-02-18T10:03:14.160Z,18.70
2023-02-18T10:05:16.314Z,4.72
2023-02-18T10:07:33.797Z,5.88
2023-02-18T10:09:37.356Z,6.95
2023-02-18T10:11:43.328Z,14.88
2023-02-18T10:13:45.478Z,7.43
2023-02-18T10:15:48.601Z,8.40
2023-02-18T10:17:51.587Z,8.38
2023-02-18T10:19:55.980Z,7.75
2023-02-18T10:21:57.866Z,5.35
2023-02-18T10:24:09.118Z,7.15
2023-02-18T10:26:16.151Z,6.75
2023-02-18T10:28:22.752Z,7.13
2023-02-18T10:30:31.063Z,10.80
2023-02-18T10:32:43.073Z,7.05
2023-02-18T10:34:52.271Z,9.65
2023-02-18T10:37:07.223Z,6.38
2023-02-18T10:39:34.637Z,9.38
2023-02-18T10:41:42.119Z,6.35
2023-02-18T10:43:49.673Z,7.30
2023-02-18T10:46:12.579Z,3.38
2023-02-18T10:48:46.081Z,7.60
2023-02-18T10:50:48.813Z,3.72
2023-02-18T10:52:55.277Z,5.43
2023-02-18T10:54:59.574Z,5.65
2023-02-18T10:57:01.163Z,6.20
2023-02-18T10:59:12.349Z,10.00
2023-02-18T11:01:16.577Z,3.72
2023-02-18T11:03:45.554Z,8.13
2023-02-18T11:05:50.147Z,7.55
2023-02-18T11:07:54.696Z,7.07
2023-02-18T11:10:02.325Z,7.72
2023-02-18T11:12:41.443Z,5.30
2023-02-18T11:14:48.495Z,4.03
2023-02-18T11:16:53.665Z,5.30
2023-02-18T11:18:55.780Z,3.90
2023-02-18T11:21:00.673Z,5.90
2023-02-18T11:23:08.262Z,6.20
2023-02-18T11:25:28.514Z,5.72
2023-02-18T11:27:44.638Z,2.58
2023-02-18T11:29:48.487Z,5.47
2023-02-18T11:31:52.904Z,4.70
2023-02-18T11:34:00.736Z,4.70
2023-02-18T11:36:17.691Z,4.15
2023-02-18T11:38:29.354Z,5.80
2023-02-18T11:40:36.003Z,2.58
2023-02-18T11:42:37.722Z,4.30
2023-02-18T11:44:48.352Z,5.32
2023-02-18T11:47:02.694Z,4.95
2023-02-18T11:49:22.501Z,3.53
2023-02-18T11:53:36.541Z,3.38
2023-02-18T11:55:38.211Z,6.07
2023-02-18T11:57:43.334Z,6.65
2023-02-18T11:59:45.055Z,8.50
2023-02-18T12:02:08.366Z,5.00
2023-02-18T12:04:18.745Z,5.88
2023-02-18T12:06:41.891Z,6.97
2023-02-18T12:08:52.926Z,2.97
2023-02-18T12:11:02.080Z,7.07
2023-02-18T12:13:27.609Z,5.85
2023-02-18T12:15:52.442Z,6.32
2023-02-18T12:18:12.498Z,4.43
2023-02-18T12:20:26.605Z,3.42
2023-02-18T12:22:33.985Z,3.58
2023-02-18T12:24:57.179Z,9.15
2023-02-18T12:27:20.637Z,5.38
2023-02-18T12:29:45.223Z,15.40
2023-02-18T12:32:08.114Z,6.00
2023-02-18T12:34:43.523Z,6.07
2023-02-18T12:37:22.787Z,3.70
2023-02-18T12:39:39.137Z,6.30
2023-02-18T12:41:55.860Z,4.70
2023-02-18T12:44:18.265Z,5.30
2023-02-18T12:46:34.164Z,7.68
2023-02-18T12:48:57.027Z,3.10
2023-02-18T12:51:10.366Z,4.40
2023-02-18T12:53:38.903Z,6.18
2023-02-18T12:55:58.537Z,13.75
2023-02-18T12:58:12.180Z,4.30
2023-02-18T13:00:36.784Z,13.38
2023-02-18T13:03:12.353Z,10.02
2023-02-18T13:05:46.842Z,26.45
2023-02-18T13:08:36.035Z,55.40
2023-02-18T13:10:40.339Z,15.45
2023-02-18T13:12:57.925Z,11.27
2023-02-18T13:15:16.237Z,9.88
2023-02-18T13:17:20.051Z,22.55
2023-02-18T13:19:24.466Z,16.13
2023-02-18T13:21:27.528Z,15.13
2023-02-18T13:23:34.115Z,10.65
2023-02-18T13:25:39.070Z,10.23
2023-02-18T13:27:54.082Z,17.85
2023-02-18T13:30:14.042Z,15.63
2023-02-18T13:32:35.650Z,11.07
2023-02-18T13:35:00.320Z,8.20
2023-02-18T13:37:21.411Z,9.20
2023-02-18T13:39:24.149Z,4.03
2023-02-18T13:41:27.335Z,12.32
2023-02-18T13:43:31.848Z,10.85
2023-02-18T13:45:34.033Z,40.35
2023-02-18T13:47:40.811Z,6.85
2023-02-18T13:49:42.942Z,6.95
2023-02-18T13:51:48.686Z,17.50
2023-02-18T13:53:52.601Z,11.07
2023-02-18T13:56:09.469Z,8.38
2023-02-18T13:58:56.717Z,7.57
2023-02-18T14:01:12.078Z,7.82
2023-02-18T14:03:36.152Z,6.13
2023-02-18T14:05:41.889Z,7.15
2023-02-18T14:07:52.989Z,15.30
2023-02-18T14:09:57.673Z,13.52
2023-02-18T14:12:25.914Z,8.23
2023-02-18T14:14:27.425Z,11.98
2023-02-18T14:17:07.732Z,8.65
2023-02-18T14:19:27.845Z,5.22
2023-02-18T14:21:47.811Z,13.73
2023-02-18T14:24:00.861Z,6.28
2023-02-18T14:26:14.340Z,7.40
2023-02-18T14:28:34.264Z,7.45
2023-02-18T14:30:42.058Z,9.70
2023-02-18T14:32:45.639Z,8.98
2023-02-18T14:35:13.102Z,8.48
2023-02-18T14:37:26.983Z,34.00
2023-02-18T14:39:31.415Z,8.70
2023-02-18T14:41:55.519Z,6.05
2023-02-18T14:44:27.544Z,8.32
2023-02-18T14:47:02.584Z,6.97
2023-02-18T14:49:13.039Z,11.75
2023-02-18T14:51:17.038Z,10.20
2023-02-18T14:53:22.398Z,15.25
2023-02-18T14:55:28.661Z,24.38
2023-02-18T14:57:40.950Z,25.90
2023-02-18T14:59:44.247Z,23.83
2023-02-18T15:01:47.724Z,30.90
2023-02-18T15:03:51.551Z,28.38
2023-02-18T15:05:53.132Z,23.95
2023-02-18T15:08:08.826Z,33.25
2023-02-18T15:10:15.109Z,42.45
2023-02-18T15:12:20.472Z,45.75
2023-02-18T15:14:26.228Z,47.47
2023-02-18T15:16:34.132Z,46.33
2023-02-18T15:18:38.716Z,21.15
2023-02-18T15:20:40.347Z,31.45
2023-02-18T15:22:42.444Z,36.08
2023-02-18T15:24:44.950Z,43.08
2023-02-18T15:26:50.595Z,38.42
2023-02-18T15:29:05.879Z,31.67
2023-02-18T15:31:15.114Z,57.88
2023-02-18T15:33:19.604Z,54.88
2023-02-18T15:35:23.274Z,53.50
2023-02-18T15:37:25.869Z,15.48
2023-02-18T15:39:28.377Z,8.43
2023-02-18T15:41:31.861Z,13.45
2023-02-18T15:43:35.138Z,7.25
2023-02-18T15:45:43.286Z,9.63
2023-02-18T15:47:48.125Z,15.68
2023-02-18T15:49:54.256Z,16.15
2023-02-18T15:51:59.054Z,11.93
2023-02-18T15:54:03.780Z,12.15
2023-02-18T15:56:10.161Z,29.83
2023-02-18T15:58:38.274Z,33.40
2023-02-18T16:00:42.596Z,39.92
2023-02-18T16:02:53.303Z,84.50
2023-02-18T16:05:00.297Z,39.35
2023-02-18T16:07:18.078Z,50.60
2023-02-18T16:09:26.820Z,73.72
2023-02-18T16:11:36.005Z,63.85
2023-02-18T16:13:46.067Z,71.43
2023-02-18T16:15:50.629Z,128.55
2023-02-18T16:17:52.217Z,102.75
2023-02-18T16:20:05.523Z,61.45
2023-02-18T16:22:23.841Z,48.20
2023-02-18T16:24:29.353Z,97.68
2023-02-18T16:26:40.164Z,49.20
2023-02-18T16:28:43.889Z,63.92
2023-02-18T16:30:46.269Z,49.10
2023-02-18T16:32:47.984Z,51.13
2023-02-18T16:34:49.702Z,43.78
2023-02-18T16:37:10.210Z,54.33
2023-02-18T16:39:11.766Z,32.80
2023-02-18T16:41:14.668Z,29.63
2023-02-18T16:43:23.777Z,48.15
2023-02-18T16:45:36.486Z,38.70
2023-02-18T16:47:39.299Z,40.13
2023-02-18T16:49:44.826Z,44.53
2023-02-18T16:51:47.182Z,23.55
2023-02-18T16:53:48.913Z,50.80
2023-02-18T16:55:51.388Z,24.25
2023-02-18T16:57:53.326Z,41.10
2023-02-18T16:59:55.006Z,45.13
2023-02-18T17:01:56.750Z,37.80
2023-02-18T17:04:00.719Z,31.45
2023-02-18T17:06:02.376Z,30.17
2023-02-18T17:08:16.824Z,61.50
2023-02-18T17:10:18.637Z,44.05
2023-02-18T17:12:20.183Z,40.15
2023-02-18T17:14:23.588Z,33.78
2023-02-18T17:16:28.365Z,31.45
2023-02-18T17:18:29.912Z,28.70
2023-02-18T17:20:32.917Z,23.88
2023-02-18T17:22:34.399Z,28.77
2023-02-18T17:24:35.876Z,259.50
2023-02-18T17:26:37.371Z,456.92
2023-02-18T17:28:38.878Z,446.58
2023-02-18T17:30:41.933Z,632.17
2023-02-18T17:32:44.589Z,213.95
2023-02-18T17:34:46.207Z,437.90
2023-02-18T17:36:47.824Z,316.15
2023-02-18T17:38:49.559Z,372.15
2023-02-18T17:40:51.237Z,521.53
2023-02-18T17:42:54.785Z,362.35
2023-02-18T17:44:57.438Z,335.75
2023-02-18T17:46:59.250Z,97.80
2023-02-18T17:49:01.648Z,157.50
2023-02-18T17:51:07.589Z,362.33
2023-02-18T17:53:11.921Z,181.95
2023-02-18T17:55:18.476Z,107.65
2023-02-18T17:57:20.047Z,52.35
2023-02-18T17:59:22.218Z,111.63
2023-02-18T18:01:23.834Z,41.08
2023-02-18T18:03:25.582Z,50.65
2023-02-18T18:05:33.336Z,30.23
2023-02-18T18:07:34.825Z,22.05
2023-02-18T18:09:36.311Z,45.10
2023-02-18T18:11:38.361Z,21.33
2023-02-18T18:13:39.945Z,16.42
2023-02-18T18:15:44.165Z,9.38
2023-02-18T18:17:45.702Z,11.43
2023-02-18T18:19:47.251Z,8.57
2023-02-18T18:21:49.025Z,10.35
2023-02-18T18:23:51.252Z,11.95
2023-02-18T18:25:55.955Z,10.68
2023-02-18T18:27:57.738Z,19.40
2023-02-18T18:29:59.332Z,26.02
2023-02-18T18:32:00.890Z,14.63
2023-02-18T18:34:03.532Z,15.35
2023-02-18T18:36:05.531Z,11.88
2023-02-18T18:38:07.147Z,11.13
2023-02-18T18:40:09.510Z,11.13
2023-02-18T18:42:12.291Z,10.20
2023-02-18T18:44:13.843Z,9.13
2023-02-18T18:46:15.405Z,8.15
2023-02-18T18:48:17.367Z,7.00
2023-02-18T18:50:20.153Z,6.53
2023-02-18T18:52:21.936Z,7.78
2023-02-18T18:54:23.542Z,10.60
2023-02-18T18:56:25.178Z,11.38
2023-02-18T18:58:27.020Z,12.25
2023-02-18T19:00:28.642Z,20.98
2023-02-18T19:02:30.339Z,13.68
2023-02-18T19:04:31.952Z,3.70
2023-02-18T19:06:33.612Z,1.75
2023-02-18T19:08:35.151Z,2.20
2023-02-18T19:10:45.167Z,1.55
2023-02-18T19:12:47.357Z,5.10
2023-02-18T19:14:49.634Z,10.85
2023-02-18T19:16:51.144Z,4.40
2023-02-18T19:18:53.397Z,8.70
2023-02-18T19:20:55.137Z,9.65
2023-02-18T19:22:57.105Z,10.05
2023-02-18T19:24:59.004Z,3.30
2023-02-18T19:27:00.624Z,5.30
2023-02-18T19:29:02.137Z,5.30
2023-02-18T19:31:10.523Z,2.20
2023-02-18T19:33:14.542Z,2.97
2023-02-18T19:35:16.164Z,8.23
2023-02-18T19:37:17.686Z,3.40
2023-02-18T19:39:19.177Z,3.03
2023-02-18T19:41:20.757Z,1.92
2023-02-18T19:43:22.342Z,4.43
2023-02-18T19:45:24.434Z,5.95
2023-02-18T19:47:26.939Z,6.53
2023-02-18T19:49:28.490Z,9.30
2023-02-18T19:51:30.060Z,9.70
2023-02-18T19:53:31.578Z,6.90
2023-02-18T19:55:33.115Z,4.38
2023-02-18T19:57:34.851Z,3.10
2023-02-18T19:59:36.760Z,3.45
2023-02-18T20:01:38.369Z,2.80
2023-02-18T20:03:40.009Z,4.10
2023-02-18T20:05:41.688Z,2.65
2023-02-18T20:07:46.219Z,3.60
2023-02-18T20:09:48.122Z,2.15
2023-02-18T20:11:49.744Z,2.08
2023-02-18T20:13:51.274Z,2.20
2023-02-18T20:15:52.893Z,3.13
2023-02-18T20:17:54.460Z,16.77
2023-02-18T20:19:56.117Z,10.82
2023-02-18T20:21:58.480Z,11.90
2023-02-18T20:24:00.017Z,10.40
2023-02-18T20:26:05.965Z,6.57
2023-02-18T20:28:07.792Z,5.28
2023-02-18T20:30:10.433Z,13.30
2023-02-18T20:32:12.155Z,11.00
2023-02-18T20:34:13.925Z,9.98
2023-02-18T20:36:15.595Z,8.68
2023-02-18T20:38:18.799Z,27.10
2023-02-18T20:40:20.354Z,5.32
2023-02-18T20:42:21.917Z,4.38
2023-02-18T20:44:24.653Z,8.02
2023-02-18T20:46:26.305Z,2.92
2023-02-18T20:48:27.885Z,6.03
2023-02-18T20:50:29.417Z,5.93
2023-02-18T20:52:32.943Z,13.23
2023-02-18T20:54:36.635Z,15.77
2023-02-18T20:56:39.233Z,6.20
2023-02-18T20:58:41.409Z,5.18
2023-02-18T21:00:42.972Z,6.43
2023-02-18T21:02:44.561Z,6.43
2023-02-18T21:04:46.189Z,11.82
2023-02-18T21:06:48.406Z,3.85
2023-02-18T21:08:52.525Z,6.38
2023-02-18T21:10:54.573Z,5.03
2023-02-18T21:12:56.128Z,5.15
2023-02-18T21:14:57.692Z,5.55
2023-02-18T21:16:59.261Z,3.67
2023-02-18T21:19:00.953Z,3.05
2023-02-18T21:21:08.361Z,3.40
2023-02-18T21:23:11.078Z,4.05
2023-02-18T21:25:13.208Z,5.00
2023-02-18T21:27:14.730Z,3.67
2023-02-18T21:29:17.285Z,4.80
2023-02-18T21:31:25.270Z,30.15
2023-02-18T21:33:27.362Z,3.88
2023-02-18T21:35:29.128Z,5.80
2023-02-18T21:37:30.663Z,10.02
2023-02-18T21:39:32.207Z,5.70
2023-02-18T21:41:34.827Z,6.85
2023-02-18T21:43:36.479Z,3.05
2023-02-18T21:45:38.630Z,8.07
2023-02-18T21:47:40.718Z,3.08
2023-02-18T21:49:42.263Z,2.58
2023-02-18T21:51:59.100Z,2.70
2023-02-18T21:54:00.638Z,4.18
2023-02-18T21:56:12.152Z,4.38
2023-02-18T21:58:13.761Z,6.03
2023-02-18T22:00:20.739Z,4.28
2023-02-18T22:02:28.608Z,5.57
2023-02-18T22:04:31.980Z,4.03
2023-02-18T22:06:33.956Z,3.78
2023-02-18T22:08:35.436Z,4.93
2023-02-18T22:10:38.891Z,3.75
2023-02-18T22:12:40.426Z,2.75
2023-02-18T22:14:42.608Z,3.67
2023-02-18T22:16:45.100Z,3.22
2023-02-18T22:18:46.693Z,3.60
2023-02-18T22:20:48.203Z,4.10
2023-02-18T22:22:49.705Z,2.60
2023-02-18T22:24:51.525Z,4.15
2023-02-18T22:26:53.083Z,5.25
2023-02-18T22:28:56.999Z,4.40
2023-02-18T22:30:58.538Z,4.13
2023-02-18T22:33:00.056Z,7.18
2023-02-18T22:35:02.391Z,4.15
2023-02-18T22:37:04.045Z,5.75
2023-02-18T22:39:06.123Z,6.95
2023-02-18T22:41:10.429Z,6.85
2023-02-18T22:43:12.165Z,5.35
2023-02-18T22:45:13.785Z,7.60
2023-02-18T22:47:15.341Z,9.65
2023-02-18T22:49:16.874Z,5.15
2023-02-18T22:51:39.008Z,8.48
2023-02-18T22:53:41.069Z,5.60
2023-02-18T22:55:42.580Z,6.18
2023-02-18T22:57:44.108Z,5.30
2023-02-18T22:59:45.631Z,5.13
2023-02-18T23:01:52.958Z,5.57
2023-02-18T23:03:56.020Z,6.88
2023-02-18T23:06:05.548Z,7.05
2023-02-18T23:08:07.110Z,5.68
2023-02-18T23:10:08.870Z,5.80
2023-02-18T23:12:10.438Z,9.98
2023-02-18T23:14:21.846Z,6.60
2023-02-18T23:16:23.404Z,25.75
2023-02-18T23:18:25.207Z,11.00
2023-02-18T23:20:45.398Z,7.55
2023-02-18T23:22:46.894Z,6.32
2023-02-18T23:24:49.581Z,5.22
2023-02-18T23:26:51.844Z,4.22
2023-02-18T23:28:54.269Z,4.72
2023-02-18T23:30:55.851Z,7.82
2023-02-18T23:32:57.409Z,7.95
2023-02-18T23:34:58.883Z,8.25
2023-02-18T23:37:00.739Z,12.20
2023-02-18T23:39:08.610Z,5.57
2023-02-18T23:41:10.370Z,6.13
2023-02-18T23:43:12.249Z,7.07
2023-02-18T23:45:13.914Z,14.60
2023-02-18T23:47:15.426Z,3.92
2023-02-18T23:49:19.346Z,5.47
2023-02-18T23:51:22.960Z,8.80
2023-02-18T23:53:28.682Z,6.13
2023-02-18T23:55:30.181Z,7.75
2023-02-18T23:57:32.583Z,6.72
2023-02-18T23:59:34.146Z,11.25
